Terminal Aerodrome Forecast
Issued by NWS Springfield, MO

Home | Current Version | Previous Version | Text Only | Print | Product List | Glossary On
Versions: 1 2 3 4 5 6 7 8 9 10 11 12 13 14 15 16 17 18 19 20 21 22 23 24 25 26 27 28 29 30
701
FTUS43 KSGF 180433 AAB
TAFSGF
TAF AMD
KSGF 180433Z 1805/1824 18015KT P6SM OVC025
     FM180600 20020G30KT P6SM BKN250
     FM181100 26018G26KT P6SM OVC100
     FM181300 29020G28KT P6SM OVC035
     FM181500 32026G36KT P6SM VCSH OVC025=

USA.gov is the U.S. government's official web portal to all federal, state and local government web resources and services.